sensor_id;sensor_type;location;lat;lon;timestamp;temperature;humidity
18207;DHT22;9229;52.354;20.886;2023-08-07T00:01:42;16.30;99.90
18207;DHT22;9229;52.354;20.886;2023-08-07T00:06:44;16.20;99.90
18207;DHT22;9229;52.354;20.886;2023-08-07T00:11:48;16.10;99.90
18207;DHT22;9229;52.354;20.886;2023-08-07T00:16:51;16.00;99.90
18207;DHT22;9229;52.354;20.886;2023-08-07T00:21:53;16.00;99.90
18207;DHT22;9229;52.354;20.886;2023-08-07T00:26:56;15.90;99.90
18207;DHT22;9229;52.354;20.886;2023-08-07T00:31:58;15.80;99.90
18207;DHT22;9229;52.354;20.886;2023-08-07T00:37:01;15.70;99.90
18207;DHT22;9229;52.354;20.886;2023-08-07T00:42:05;15.60;99.90
18207;DHT22;9229;52.354;20.886;2023-08-07T00:47:08;15.50;99.90
18207;DHT22;9229;52.354;20.886;2023-08-07T00:52:10;15.40;99.90
18207;DHT22;9229;52.354;20.886;2023-08-07T00:57:14;15.40;99.90
18207;DHT22;9229;52.354;20.886;2023-08-07T01:02:17;15.50;99.90
18207;DHT22;9229;52.354;20.886;2023-08-07T01:07:25;15.30;99.90
18207;DHT22;9229;52.354;20.886;2023-08-07T01:12:30;15.30;99.90
18207;DHT22;9229;52.354;20.886;2023-08-07T01:17:37;15.20;99.90
18207;DHT22;9229;52.354;20.886;2023-08-07T01:22:41;15.20;99.90
18207;DHT22;9229;52.354;20.886;2023-08-07T01:27:50;15.10;99.90
18207;DHT22;9229;52.354;20.886;2023-08-07T01:32:59;15.10;99.90
18207;DHT22;9229;52.354;20.886;2023-08-07T01:38:07;15.20;99.90
18207;DHT22;9229;52.354;20.886;2023-08-07T01:43:09;15.10;99.90
18207;DHT22;9229;52.354;20.886;2023-08-07T01:48:11;15.10;99.90
18207;DHT22;9229;52.354;20.886;2023-08-07T01:53:14;15.10;99.90
18207;DHT22;9229;52.354;20.886;2023-08-07T01:58:17;15.00;99.90
18207;DHT22;9229;52.354;20.886;2023-08-07T02:03:19;15.00;99.90
18207;DHT22;9229;52.354;20.886;2023-08-07T02:08:23;15.00;99.90
18207;DHT22;9229;52.354;20.886;2023-08-07T02:13:25;14.90;99.90
18207;DHT22;9229;52.354;20.886;2023-08-07T02:18:27;14.90;99.90
18207;DHT22;9229;52.354;20.886;2023-08-07T02:23:30;14.90;99.90
18207;DHT22;9229;52.354;20.886;2023-08-07T02:28:36;14.90;99.90
18207;DHT22;9229;52.354;20.886;2023-08-07T02:33:38;14.90;99.90
18207;DHT22;9229;52.354;20.886;2023-08-07T02:38:43;14.90;99.90
18207;DHT22;9229;52.354;20.886;2023-08-07T02:43:45;14.80;99.90
18207;DHT22;9229;52.354;20.886;2023-08-07T02:48:47;14.80;99.90
18207;DHT22;9229;52.354;20.886;2023-08-07T02:53:51;14.80;99.90
18207;DHT22;9229;52.354;20.886;2023-08-07T02:58:53;14.80;99.90
18207;DHT22;9229;52.354;20.886;2023-08-07T03:03:55;14.70;99.90
18207;DHT22;9229;52.354;20.886;2023-08-07T03:08:59;14.70;99.90
18207;DHT22;9229;52.354;20.886;2023-08-07T03:14:01;14.70;99.90
18207;DHT22;9229;52.354;20.886;2023-08-07T03:19:04;14.60;99.90
18207;DHT22;9229;52.354;20.886;2023-08-07T03:24:07;14.70;99.90
18207;DHT22;9229;52.354;20.886;2023-08-07T03:29:09;14.70;99.90
18207;DHT22;9229;52.354;20.886;2023-08-07T03:34:12;14.60;99.90
18207;DHT22;9229;52.354;20.886;2023-08-07T03:39:16;14.60;99.90
18207;DHT22;9229;52.354;20.886;2023-08-07T03:44:19;14.60;99.90
18207;DHT22;9229;52.354;20.886;2023-08-07T03:49:21;14.60;99.90
18207;DHT22;9229;52.354;20.886;2023-08-07T03:54:26;14.70;99.90
18207;DHT22;9229;52.354;20.886;2023-08-07T03:59:28;14.70;99.90
18207;DHT22;9229;52.354;20.886;2023-08-07T04:04:30;14.60;99.90
18207;DHT22;9229;52.354;20.886;2023-08-07T04:09:34;14.70;99.90
18207;DHT22;9229;52.354;20.886;2023-08-07T04:14:36;14.70;99.90
18207;DHT22;9229;52.354;20.886;2023-08-07T04:19:38;14.70;99.90
18207;DHT22;9229;52.354;20.886;2023-08-07T04:24:42;14.70;99.90
18207;DHT22;9229;52.354;20.886;2023-08-07T04:29:44;14.70;99.90
18207;DHT22;9229;52.354;20.886;2023-08-07T04:34:46;14.70;99.90
18207;DHT22;9229;52.354;20.886;2023-08-07T04:39:50;14.90;99.90
18207;DHT22;9229;52.354;20.886;2023-08-07T04:44:52;14.80;99.90
18207;DHT22;9229;52.354;20.886;2023-08-07T04:49:54;14.90;99.90
18207;DHT22;9229;52.354;20.886;2023-08-07T04:54:58;14.90;99.90
18207;DHT22;9229;52.354;20.886;2023-08-07T05:00:00;15.00;99.90
18207;DHT22;9229;52.354;20.886;2023-08-07T05:05:02;15.00;99.90
18207;DHT22;9229;52.354;20.886;2023-08-07T05:10:08;15.10;99.90
18207;DHT22;9229;52.354;20.886;2023-08-07T05:15:10;15.20;99.90
18207;DHT22;9229;52.354;20.886;2023-08-07T05:20:13;15.30;99.90
18207;DHT22;9229;52.354;20.886;2023-08-07T05:25:17;15.30;99.90
18207;DHT22;9229;52.354;20.886;2023-08-07T05:30:19;15.60;99.90
18207;DHT22;9229;52.354;20.886;2023-08-07T05:35:21;15.80;99.90
18207;DHT22;9229;52.354;20.886;2023-08-07T05:40:26;15.80;99.90
18207;DHT22;9229;52.354;20.886;2023-08-07T05:45:28;15.80;99.90
18207;DHT22;9229;52.354;20.886;2023-08-07T05:50:30;15.60;99.90
18207;DHT22;9229;52.354;20.886;2023-08-07T05:55:34;15.70;99.90
18207;DHT22;9229;52.354;20.886;2023-08-07T06:00:37;15.70;99.90
18207;DHT22;9229;52.354;20.886;2023-08-07T06:05:39;15.80;99.90
18207;DHT22;9229;52.354;20.886;2023-08-07T06:10:42;15.90;99.90
18207;DHT22;9229;52.354;20.886;2023-08-07T06:15:45;16.10;99.90
18207;DHT22;9229;52.354;20.886;2023-08-07T06:20:48;15.90;99.90
18207;DHT22;9229;52.354;20.886;2023-08-07T06:25:51;15.80;99.90
18207;DHT22;9229;52.354;20.886;2023-08-07T06:31:00;15.70;99.90
18207;DHT22;9229;52.354;20.886;2023-08-07T06:36:04;15.60;99.90
18207;DHT22;9229;52.354;20.886;2023-08-07T06:41:08;15.50;99.90
18207;DHT22;9229;52.354;20.886;2023-08-07T06:46:10;15.50;99.90
18207;DHT22;9229;52.354;20.886;2023-08-07T06:51:12;15.80;99.90
18207;DHT22;9229;52.354;20.886;2023-08-07T06:56:17;16.10;99.90
18207;DHT22;9229;52.354;20.886;2023-08-07T07:01:19;16.50;99.90
18207;DHT22;9229;52.354;20.886;2023-08-07T07:06:22;16.70;99.90
18207;DHT22;9229;52.354;20.886;2023-08-07T07:11:27;17.10;99.90
18207;DHT22;9229;52.354;20.886;2023-08-07T07:16:29;17.50;99.90
18207;DHT22;9229;52.354;20.886;2023-08-07T07:21:33;17.60;99.90
18207;DHT22;9229;52.354;20.886;2023-08-07T07:26:36;17.80;99.90
18207;DHT22;9229;52.354;20.886;2023-08-07T07:31:38;17.70;99.90
18207;DHT22;9229;52.354;20.886;2023-08-07T07:36:40;17.80;99.90
18207;DHT22;9229;52.354;20.886;2023-08-07T07:41:44;17.90;99.90
18207;DHT22;9229;52.354;20.886;2023-08-07T07:46:46;17.80;99.90
18207;DHT22;9229;52.354;20.886;2023-08-07T07:51:48;17.60;99.90
18207;DHT22;9229;52.354;20.886;2023-08-07T07:56:52;17.40;99.90
18207;DHT22;9229;52.354;20.886;2023-08-07T08:01:54;17.60;99.90
18207;DHT22;9229;52.354;20.886;2023-08-07T08:06:56;17.60;99.90
18207;DHT22;9229;52.354;20.886;2023-08-07T08:12:03;17.50;99.90
18207;DHT22;9229;52.354;20.886;2023-08-07T08:17:05;17.30;99.90
18207;DHT22;9229;52.354;20.886;2023-08-07T08:22:08;17.20;99.90
18207;DHT22;9229;52.354;20.886;2023-08-07T08:27:12;17.20;99.90
18207;DHT22;9229;52.354;20.886;2023-08-07T08:32:14;17.00;99.90
18207;DHT22;9229;52.354;20.886;2023-08-07T08:37:17;17.10;99.90
18207;DHT22;9229;52.354;20.886;2023-08-07T08:42:21;17.80;99.90
18207;DHT22;9229;52.354;20.886;2023-08-07T08:47:26;18.20;99.90
18207;DHT22;9229;52.354;20.886;2023-08-07T08:52:31;18.70;99.90
18207;DHT22;9229;52.354;20.886;2023-08-07T08:57:35;18.30;99.90
18207;DHT22;9229;52.354;20.886;2023-08-07T09:02:38;18.70;99.90
18207;DHT22;9229;52.354;20.886;2023-08-07T09:07:41;18.80;99.90
18207;DHT22;9229;52.354;20.886;2023-08-07T09:12:53;18.80;99.90
18207;DHT22;9229;52.354;20.886;2023-08-07T09:17:59;19.00;99.90
18207;DHT22;9229;52.354;20.886;2023-08-07T09:23:02;19.80;99.90
18207;DHT22;9229;52.354;20.886;2023-08-07T09:28:07;21.40;99.90
18207;DHT22;9229;52.354;20.886;2023-08-07T09:33:10;21.90;99.90
18207;DHT22;9229;52.354;20.886;2023-08-07T09:38:12;21.30;99.90
18207;DHT22;9229;52.354;20.886;2023-08-07T09:43:22;20.40;99.90
18207;DHT22;9229;52.354;20.886;2023-08-07T09:48:24;20.10;99.90
18207;DHT22;9229;52.354;20.886;2023-08-07T09:53:28;20.00;99.90
18207;DHT22;9229;52.354;20.886;2023-08-07T09:58:33;19.80;99.90
18207;DHT22;9229;52.354;20.886;2023-08-07T10:03:35;19.30;99.90
18207;DHT22;9229;52.354;20.886;2023-08-07T10:08:38;20.30;99.90
18207;DHT22;9229;52.354;20.886;2023-08-07T10:13:43;21.40;99.90
18207;DHT22;9229;52.354;20.886;2023-08-07T10:18:45;21.20;99.90
18207;DHT22;9229;52.354;20.886;2023-08-07T10:23:48;20.80;99.90
18207;DHT22;9229;52.354;20.886;2023-08-07T10:28:56;21.10;99.90
18207;DHT22;9229;52.354;20.886;2023-08-07T10:33:58;23.20;98.00
18207;DHT22;9229;52.354;20.886;2023-08-07T10:39:10;24.80;94.60
18207;DHT22;9229;52.354;20.886;2023-08-07T10:44:21;24.00;91.70
18207;DHT22;9229;52.354;20.886;2023-08-07T10:49:52;22.50;92.90
18207;DHT22;9229;52.354;20.886;2023-08-07T10:54:58;22.40;95.00
18207;DHT22;9229;52.354;20.886;2023-08-07T11:00:06;24.50;92.20
18207;DHT22;9229;52.354;20.886;2023-08-07T11:05:10;26.00;89.80
18207;DHT22;9229;52.354;20.886;2023-08-07T11:10:13;25.50;83.80
18207;DHT22;9229;52.354;20.886;2023-08-07T11:15:17;25.00;84.60
18207;DHT22;9229;52.354;20.886;2023-08-07T11:20:19;25.40;82.50
18207;DHT22;9229;52.354;20.886;2023-08-07T11:25:21;24.60;79.90
18207;DHT22;9229;52.354;20.886;2023-08-07T11:30:28;23.50;82.90
18207;DHT22;9229;52.354;20.886;2023-08-07T11:35:30;24.20;82.90
18207;DHT22;9229;52.354;20.886;2023-08-07T11:40:32;24.40;82.90
18207;DHT22;9229;52.354;20.886;2023-08-07T11:45:36;25.10;79.30
18207;DHT22;9229;52.354;20.886;2023-08-07T11:50:39;25.00;77.90
18207;DHT22;9229;52.354;20.886;2023-08-07T11:55:47;24.80;75.90
18207;DHT22;9229;52.354;20.886;2023-08-07T12:01:03;24.70;78.30
18207;DHT22;9229;52.354;20.886;2023-08-07T12:06:06;24.10;78.20
18207;DHT22;9229;52.354;20.886;2023-08-07T12:11:09;23.40;79.40
18207;DHT22;9229;52.354;20.886;2023-08-07T12:16:14;22.80;81.60
18207;DHT22;9229;52.354;20.886;2023-08-07T12:21:18;21.90;82.30
18207;DHT22;9229;52.354;20.886;2023-08-07T12:26:21;21.10;85.10
18207;DHT22;9229;52.354;20.886;2023-08-07T12:31:24;20.50;86.50
18207;DHT22;9229;52.354;20.886;2023-08-07T12:36:26;20.40;88.50
18207;DHT22;9229;52.354;20.886;2023-08-07T12:41:28;21.10;87.70
18207;DHT22;9229;52.354;20.886;2023-08-07T12:46:32;21.80;86.70
18207;DHT22;9229;52.354;20.886;2023-08-07T12:51:34;22.80;84.50
18207;DHT22;9229;52.354;20.886;2023-08-07T12:56:36;23.40;83.20
18207;DHT22;9229;52.354;20.886;2023-08-07T13:01:40;23.10;84.10
18207;DHT22;9229;52.354;20.886;2023-08-07T13:06:42;22.80;83.10
18207;DHT22;9229;52.354;20.886;2023-08-07T13:11:44;22.20;80.60
18207;DHT22;9229;52.354;20.886;2023-08-07T13:16:48;22.00;81.80
18207;DHT22;9229;52.354;20.886;2023-08-07T13:21:50;21.90;80.80
18207;DHT22;9229;52.354;20.886;2023-08-07T13:26:52;22.00;80.50
18207;DHT22;9229;52.354;20.886;2023-08-07T13:31:55;22.10;81.30
18207;DHT22;9229;52.354;20.886;2023-08-07T13:36:57;22.40;81.60
18207;DHT22;9229;52.354;20.886;2023-08-07T13:42:00;22.50;80.70
18207;DHT22;9229;52.354;20.886;2023-08-07T13:47:07;22.70;80.40
18207;DHT22;9229;52.354;20.886;2023-08-07T13:52:10;22.60;79.50
18207;DHT22;9229;52.354;20.886;2023-08-07T13:57:13;22.40;79.50
18207;DHT22;9229;52.354;20.886;2023-08-07T14:02:16;22.10;81.50
18207;DHT22;9229;52.354;20.886;2023-08-07T14:07:18;21.50;82.90
18207;DHT22;9229;52.354;20.886;2023-08-07T14:12:20;20.70;90.10
18207;DHT22;9229;52.354;20.886;2023-08-07T14:17:23;19.60;92.40
18207;DHT22;9229;52.354;20.886;2023-08-07T14:22:25;18.70;93.70
18207;DHT22;9229;52.354;20.886;2023-08-07T14:27:27;18.20;94.70
18207;DHT22;9229;52.354;20.886;2023-08-07T14:32:31;17.90;95.40
18207;DHT22;9229;52.354;20.886;2023-08-07T14:37:33;17.70;96.30
18207;DHT22;9229;52.354;20.886;2023-08-07T14:42:37;17.60;97.00
18207;DHT22;9229;52.354;20.886;2023-08-07T14:47:40;17.80;97.50
18207;DHT22;9229;52.354;20.886;2023-08-07T14:52:43;18.10;98.60
18207;DHT22;9229;52.354;20.886;2023-08-07T14:57:45;18.60;97.20
18207;DHT22;9229;52.354;20.886;2023-08-07T15:02:48;18.80;96.10
18207;DHT22;9229;52.354;20.886;2023-08-07T15:07:50;18.90;95.50
18207;DHT22;9229;52.354;20.886;2023-08-07T15:12:52;19.10;94.70
18207;DHT22;9229;52.354;20.886;2023-08-07T15:17:58;19.40;94.60
18207;DHT22;9229;52.354;20.886;2023-08-07T15:23:03;19.60;93.60
18207;DHT22;9229;52.354;20.886;2023-08-07T15:28:05;19.80;93.30
18207;DHT22;9229;52.354;20.886;2023-08-07T15:33:11;20.00;93.30
18207;DHT22;9229;52.354;20.886;2023-08-07T15:38:13;20.10;93.40
18207;DHT22;9229;52.354;20.886;2023-08-07T15:43:15;20.20;93.50
18207;DHT22;9229;52.354;20.886;2023-08-07T15:48:18;20.20;93.70
18207;DHT22;9229;52.354;20.886;2023-08-07T15:53:20;20.40;93.80
18207;DHT22;9229;52.354;20.886;2023-08-07T15:58:22;20.80;93.40
18207;DHT22;9229;52.354;20.886;2023-08-07T16:03:26;20.80;93.00
18207;DHT22;9229;52.354;20.886;2023-08-07T16:08:28;20.70;91.80
18207;DHT22;9229;52.354;20.886;2023-08-07T16:13:30;20.60;91.70
18207;DHT22;9229;52.354;20.886;2023-08-07T16:18:34;20.40;91.00
18207;DHT22;9229;52.354;20.886;2023-08-07T16:23:37;20.20;91.20
18207;DHT22;9229;52.354;20.886;2023-08-07T16:28:39;20.20;91.90
18207;DHT22;9229;52.354;20.886;2023-08-07T16:33:43;20.00;92.00
18207;DHT22;9229;52.354;20.886;2023-08-07T16:38:45;20.00;91.80
18207;DHT22;9229;52.354;20.886;2023-08-07T16:43:49;20.10;92.00
18207;DHT22;9229;52.354;20.886;2023-08-07T16:48:53;20.20;91.90
18207;DHT22;9229;52.354;20.886;2023-08-07T16:53:55;20.30;90.80
18207;DHT22;9229;52.354;20.886;2023-08-07T16:58:57;20.20;89.30
18207;DHT22;9229;52.354;20.886;2023-08-07T17:04:00;20.00;86.40
18207;DHT22;9229;52.354;20.886;2023-08-07T17:09:03;19.80;85.90
18207;DHT22;9229;52.354;20.886;2023-08-07T17:14:05;19.80;85.40
18207;DHT22;9229;52.354;20.886;2023-08-07T17:19:08;19.80;84.80
18207;DHT22;9229;52.354;20.886;2023-08-07T17:24:10;19.70;85.20
18207;DHT22;9229;52.354;20.886;2023-08-07T17:29:12;19.50;86.00
18207;DHT22;9229;52.354;20.886;2023-08-07T17:34:17;19.30;86.90
18207;DHT22;9229;52.354;20.886;2023-08-07T17:39:20;19.20;88.00
18207;DHT22;9229;52.354;20.886;2023-08-07T17:44:22;19.10;88.80
18207;DHT22;9229;52.354;20.886;2023-08-07T17:49:25;19.00;88.90
18207;DHT22;9229;52.354;20.886;2023-08-07T17:54:27;18.80;89.30
18207;DHT22;9229;52.354;20.886;2023-08-07T17:59:29;18.70;89.00
18207;DHT22;9229;52.354;20.886;2023-08-07T18:04:34;18.60;88.40
18207;DHT22;9229;52.354;20.886;2023-08-07T18:09:36;18.60;88.70
18207;DHT22;9229;52.354;20.886;2023-08-07T18:14:38;18.50;89.10
18207;DHT22;9229;52.354;20.886;2023-08-07T18:19:42;18.50;89.70
18207;DHT22;9229;52.354;20.886;2023-08-07T18:24:44;18.40;90.00
18207;DHT22;9229;52.354;20.886;2023-08-07T18:29:46;18.40;90.20
18207;DHT22;9229;52.354;20.886;2023-08-07T18:34:50;18.30;90.20
18207;DHT22;9229;52.354;20.886;2023-08-07T18:39:52;18.30;90.40
18207;DHT22;9229;52.354;20.886;2023-08-07T18:44:54;18.20;90.40
18207;DHT22;9229;52.354;20.886;2023-08-07T18:49:58;18.20;90.90
18207;DHT22;9229;52.354;20.886;2023-08-07T18:55:01;18.10;91.10
18207;DHT22;9229;52.354;20.886;2023-08-07T19:00:08;18.10;91.10
18207;DHT22;9229;52.354;20.886;2023-08-07T19:05:12;18.00;91.30
18207;DHT22;9229;52.354;20.886;2023-08-07T19:10:14;18.00;91.80
18207;DHT22;9229;52.354;20.886;2023-08-07T19:15:16;17.90;92.30
18207;DHT22;9229;52.354;20.886;2023-08-07T19:20:20;17.80;92.90
18207;DHT22;9229;52.354;20.886;2023-08-07T19:25:22;17.70;93.40
18207;DHT22;9229;52.354;20.886;2023-08-07T19:30:24;17.50;94.30
18207;DHT22;9229;52.354;20.886;2023-08-07T19:35:27;17.40;94.50
18207;DHT22;9229;52.354;20.886;2023-08-07T19:40:29;17.30;95.20
18207;DHT22;9229;52.354;20.886;2023-08-07T19:45:31;17.20;95.70
18207;DHT22;9229;52.354;20.886;2023-08-07T19:50:36;17.00;96.20
18207;DHT22;9229;52.354;20.886;2023-08-07T19:55:40;16.90;96.80
18207;DHT22;9229;52.354;20.886;2023-08-07T20:00:42;16.80;97.30
18207;DHT22;9229;52.354;20.886;2023-08-07T20:05:45;16.70;97.90
18207;DHT22;9229;52.354;20.886;2023-08-07T20:10:48;16.50;98.30
18207;DHT22;9229;52.354;20.886;2023-08-07T20:15:50;16.40;98.80
18207;DHT22;9229;52.354;20.886;2023-08-07T20:20:55;16.20;99.50
18207;DHT22;9229;52.354;20.886;2023-08-07T20:25:57;16.10;99.90
18207;DHT22;9229;52.354;20.886;2023-08-07T20:30:59;16.10;99.90
18207;DHT22;9229;52.354;20.886;2023-08-07T20:36:03;16.00;99.90
18207;DHT22;9229;52.354;20.886;2023-08-07T20:41:05;15.90;99.90
18207;DHT22;9229;52.354;20.886;2023-08-07T20:46:07;15.80;99.90
18207;DHT22;9229;52.354;20.886;2023-08-07T20:51:11;15.70;99.90
18207;DHT22;9229;52.354;20.886;2023-08-07T20:56:14;15.60;99.90
18207;DHT22;9229;52.354;20.886;2023-08-07T21:01:18;15.50;99.90
18207;DHT22;9229;52.354;20.886;2023-08-07T21:06:22;15.50;99.90
18207;DHT22;9229;52.354;20.886;2023-08-07T21:11:24;15.50;99.90
18207;DHT22;9229;52.354;20.886;2023-08-07T21:16:28;15.50;99.90
18207;DHT22;9229;52.354;20.886;2023-08-07T21:21:32;15.50;99.90
18207;DHT22;9229;52.354;20.886;2023-08-07T21:26:35;15.50;99.90
18207;DHT22;9229;52.354;20.886;2023-08-07T21:31:37;15.50;99.90
18207;DHT22;9229;52.354;20.886;2023-08-07T21:36:44;15.60;99.90
18207;DHT22;9229;52.354;20.886;2023-08-07T21:48:01;15.50;99.90
18207;DHT22;9229;52.354;20.886;2023-08-07T21:53:06;15.50;99.90
18207;DHT22;9229;52.354;20.886;2023-08-07T21:58:09;15.50;99.90
18207;DHT22;9229;52.354;20.886;2023-08-07T22:03:11;15.50;99.90
18207;DHT22;9229;52.354;20.886;2023-08-07T22:08:15;15.70;99.90
18207;DHT22;9229;52.354;20.886;2023-08-07T22:13:17;15.60;99.90
18207;DHT22;9229;52.354;20.886;2023-08-07T22:18:19;15.70;99.90
18207;DHT22;9229;52.354;20.886;2023-08-07T22:23:23;15.70;99.90
18207;DHT22;9229;52.354;20.886;2023-08-07T22:28:27;15.80;99.90
18207;DHT22;9229;52.354;20.886;2023-08-07T22:33:29;15.80;99.90
18207;DHT22;9229;52.354;20.886;2023-08-07T22:38:32;15.80;99.90
18207;DHT22;9229;52.354;20.886;2023-08-07T22:43:35;15.80;99.90
18207;DHT22;9229;52.354;20.886;2023-08-07T22:48:37;15.90;99.90
18207;DHT22;9229;52.354;20.886;2023-08-07T22:53:41;15.90;99.90
18207;DHT22;9229;52.354;20.886;2023-08-07T22:58:43;15.90;99.90
18207;DHT22;9229;52.354;20.886;2023-08-07T23:09:46;16.00;99.90
18207;DHT22;9229;52.354;20.886;2023-08-07T23:14:48;16.00;99.90
18207;DHT22;9229;52.354;20.886;2023-08-07T23:19:50;16.00;99.90
18207;DHT22;9229;52.354;20.886;2023-08-07T23:24:54;15.90;99.90
18207;DHT22;9229;52.354;20.886;2023-08-07T23:29:56;15.80;99.90
18207;DHT22;9229;52.354;20.886;2023-08-07T23:34:58;15.80;99.90
18207;DHT22;9229;52.354;20.886;2023-08-07T23:40:02;15.70;99.90
18207;DHT22;9229;52.354;20.886;2023-08-07T23:45:06;15.70;99.90
18207;DHT22;9229;52.354;20.886;2023-08-07T23:50:09;15.70;99.90
18207;DHT22;9229;52.354;20.886;2023-08-07T23:55:18;15.70;99.90
